sensor_id;sensor_type;location;lat;lon;timestamp;pressure;altitude;pressure_sealevel;temperature;humidity
19624;BME280;9959;49.798;9.928;2023-02-21T00:00:42;100091.31;;;6.34;85.85
19624;BME280;9959;49.798;9.928;2023-02-21T00:03:28;100083.28;;;6.42;85.73
19624;BME280;9959;49.798;9.928;2023-02-21T00:06:13;100077.69;;;6.13;86.47
19624;BME280;9959;49.798;9.928;2023-02-21T00:08:45;100082.81;;;6.31;86.63
19624;BME280;9959;49.798;9.928;2023-02-21T00:11:30;100086.06;;;6.18;86.43
19624;BME280;9959;49.798;9.928;2023-02-21T00:14:16;100087.13;;;5.76;87.93
19624;BME280;9959;49.798;9.928;2023-02-21T00:16:42;100096.84;;;5.69;89.70
19624;BME280;9959;49.798;9.928;2023-02-21T00:19:28;100082.97;;;5.74;90.19
19624;BME280;9959;49.798;9.928;2023-02-21T00:22:13;100082.94;;;5.82;89.86
19624;BME280;9959;49.798;9.928;2023-02-21T00:24:45;100076.44;;;5.76;90.33
19624;BME280;9959;49.798;9.928;2023-02-21T00:27:30;100076.78;;;5.90;90.41
19624;BME280;9959;49.798;9.928;2023-02-21T00:30:15;100077.81;;;5.64;91.13
19624;BME280;9959;49.798;9.928;2023-02-21T00:32:45;100077.47;;;5.67;91.80
19624;BME280;9959;49.798;9.928;2023-02-21T00:35:32;100081.13;;;5.66;91.62
19624;BME280;9959;49.798;9.928;2023-02-21T00:38:18;100074.50;;;5.38;92.71
19624;BME280;9959;49.798;9.928;2023-02-21T00:41:03;100073.50;;;5.39;93.26
19624;BME280;9959;49.798;9.928;2023-02-21T00:43:45;100077.63;;;5.58;93.07
19624;BME280;9959;49.798;9.928;2023-02-21T00:46:30;100081.66;;;5.37;94.67
19624;BME280;9959;49.798;9.928;2023-02-21T00:49:15;100083.19;;;5.16;95.70
19624;BME280;9959;49.798;9.928;2023-02-21T00:51:42;100084.84;;;5.33;95.34
19624;BME280;9959;49.798;9.928;2023-02-21T00:54:28;100077.84;;;5.16;96.10
19624;BME280;9959;49.798;9.928;2023-02-21T00:57:16;100083.00;;;5.09;94.76
19624;BME280;9959;49.798;9.928;2023-02-21T00:59:45;100082.81;;;5.02;96.49
19624;BME280;9959;49.798;9.928;2023-02-21T01:02:30;100078.50;;;5.09;96.17
19624;BME280;9959;49.798;9.928;2023-02-21T01:05:15;100068.97;;;4.91;96.15
19624;BME280;9959;49.798;9.928;2023-02-21T01:07:45;100082.13;;;4.84;96.61
19624;BME280;9959;49.798;9.928;2023-02-21T01:10:30;100090.28;;;4.74;97.04
19624;BME280;9959;49.798;9.928;2023-02-21T01:13:16;100081.81;;;4.95;95.97
19624;BME280;9959;49.798;9.928;2023-02-21T01:15:43;100080.19;;;5.19;94.63
19624;BME280;9959;49.798;9.928;2023-02-21T01:18:28;100080.81;;;4.96;95.01
19624;BME280;9959;49.798;9.928;2023-02-21T01:21:16;100079.16;;;5.03;94.58
19624;BME280;9959;49.798;9.928;2023-02-21T01:23:45;100083.16;;;4.99;95.26
19624;BME280;9959;49.798;9.928;2023-02-21T01:26:31;100079.16;;;4.87;95.73
19624;BME280;9959;49.798;9.928;2023-02-21T01:29:16;100093.75;;;4.67;95.90
19624;BME280;9959;49.798;9.928;2023-02-21T01:31:43;100085.28;;;4.80;96.62
19624;BME280;9959;49.798;9.928;2023-02-21T01:34:28;100078.22;;;4.54;97.35
19624;BME280;9959;49.798;9.928;2023-02-21T01:37:13;100087.88;;;4.47;97.91
19624;BME280;9959;49.798;9.928;2023-02-21T01:39:48;100085.38;;;4.46;98.70
19624;BME280;9959;49.798;9.928;2023-02-21T01:42:33;100088.19;;;4.44;99.27
19624;BME280;9959;49.798;9.928;2023-02-21T01:48:14;100085.34;;;4.37;99.74
19624;BME280;9959;49.798;9.928;2023-02-21T01:50:45;100075.38;;;4.48;99.10
19624;BME280;9959;49.798;9.928;2023-02-21T01:53:37;100081.06;;;4.53;98.70
19624;BME280;9959;49.798;9.928;2023-02-21T01:56:23;100071.75;;;4.57;98.63
19624;BME280;9959;49.798;9.928;2023-02-21T01:59:09;100068.97;;;4.83;96.76
19624;BME280;9959;49.798;9.928;2023-02-21T02:01:50;100067.09;;;4.75;96.35
19624;BME280;9959;49.798;9.928;2023-02-21T02:04:37;100056.25;;;4.76;96.41
19624;BME280;9959;49.798;9.928;2023-02-21T02:07:23;100065.44;;;4.82;95.67
19624;BME280;9959;49.798;9.928;2023-02-21T02:10:09;100057.44;;;4.82;95.69
19624;BME280;9959;49.798;9.928;2023-02-21T02:29:56;100038.09;;;5.04;93.23
19624;BME280;9959;49.798;9.928;2023-02-21T02:38:02;100032.41;;;5.24;92.24
19624;BME280;9959;49.798;9.928;2023-02-21T02:41:03;100029.25;;;5.36;91.19
19624;BME280;9959;49.798;9.928;2023-02-21T02:49:15;100025.38;;;5.47;91.00
19624;BME280;9959;49.798;9.928;2023-02-21T02:51:43;100031.75;;;5.46;90.32
19624;BME280;9959;49.798;9.928;2023-02-21T02:54:09;100030.25;;;5.43;90.59
19624;BME280;9959;49.798;9.928;2023-02-21T02:56:38;100024.38;;;5.48;90.71
19624;BME280;9959;49.798;9.928;2023-02-21T02:59:07;100028.03;;;5.63;90.21
19624;BME280;9959;49.798;9.928;2023-02-21T03:15:11;100019.63;;;5.74;89.52
19624;BME280;9959;49.798;9.928;2023-02-21T03:17:43;100027.47;;;5.84;88.93
19624;BME280;9959;49.798;9.928;2023-02-21T03:20:12;100021.94;;;5.86;89.14
19624;BME280;9959;49.798;9.928;2023-02-21T03:22:42;100026.28;;;5.78;89.59
19624;BME280;9959;49.798;9.928;2023-02-21T03:25:11;100017.94;;;5.90;89.27
19624;BME280;9959;49.798;9.928;2023-02-21T03:27:41;100019.28;;;5.77;89.48
19624;BME280;9959;49.798;9.928;2023-02-21T03:30:09;100012.06;;;5.86;89.20
19624;BME280;9959;49.798;9.928;2023-02-21T03:32:48;100012.50;;;5.59;90.80
19624;BME280;9959;49.798;9.928;2023-02-21T03:37:50;100032.03;;;5.59;91.26
19624;BME280;9959;49.798;9.928;2023-02-21T03:40:31;100023.41;;;5.25;92.62
19624;BME280;9959;49.798;9.928;2023-02-21T03:43:00;100034.75;;;5.35;92.97
19624;BME280;9959;49.798;9.928;2023-02-21T03:45:27;100029.25;;;5.20;92.98
19624;BME280;9959;49.798;9.928;2023-02-21T03:47:54;100037.56;;;5.50;92.37
19624;BME280;9959;49.798;9.928;2023-02-21T03:50:21;100038.38;;;5.50;92.18
19624;BME280;9959;49.798;9.928;2023-02-21T03:52:48;100041.09;;;5.42;92.35
19624;BME280;9959;49.798;9.928;2023-02-21T03:55:16;100042.25;;;5.39;92.54
19624;BME280;9959;49.798;9.928;2023-02-21T03:57:43;100044.06;;;5.47;93.16
19624;BME280;9959;49.798;9.928;2023-02-21T04:00:11;100044.72;;;5.57;91.94
19624;BME280;9959;49.798;9.928;2023-02-21T04:02:38;100042.59;;;5.44;93.08
19624;BME280;9959;49.798;9.928;2023-02-21T04:05:14;100042.09;;;5.41;92.60
19624;BME280;9959;49.798;9.928;2023-02-21T04:07:41;100036.75;;;5.33;93.45
19624;BME280;9959;49.798;9.928;2023-02-21T04:10:08;100042.44;;;5.38;93.10
19624;BME280;9959;49.798;9.928;2023-02-21T04:12:35;100045.63;;;5.17;94.88
19624;BME280;9959;49.798;9.928;2023-02-21T04:15:02;100038.09;;;5.04;95.47
19624;BME280;9959;49.798;9.928;2023-02-21T04:17:29;100048.44;;;4.91;97.09
19624;BME280;9959;49.798;9.928;2023-02-21T04:19:56;100057.28;;;4.84;95.51
19624;BME280;9959;49.798;9.928;2023-02-21T04:22:23;100049.56;;;4.72;98.09
19624;BME280;9959;49.798;9.928;2023-02-21T04:24:50;100056.91;;;4.70;98.26
19624;BME280;9959;49.798;9.928;2023-02-21T04:27:17;100053.28;;;4.80;97.59
19624;BME280;9959;49.798;9.928;2023-02-21T04:29:44;100043.59;;;4.95;97.14
19624;BME280;9959;49.798;9.928;2023-02-21T04:32:13;100049.75;;;4.71;97.63
19624;BME280;9959;49.798;9.928;2023-02-21T04:34:40;100044.28;;;4.89;97.17
19624;BME280;9959;49.798;9.928;2023-02-21T04:37:07;100033.59;;;4.81;97.01
19624;BME280;9959;49.798;9.928;2023-02-21T04:39:34;100019.25;;;4.90;96.28
19624;BME280;9959;49.798;9.928;2023-02-21T04:42:01;100022.91;;;4.89;96.91
19624;BME280;9959;49.798;9.928;2023-02-21T04:44:28;100023.59;;;4.91;96.43
19624;BME280;9959;49.798;9.928;2023-02-21T04:46:55;100026.03;;;4.68;97.63
19624;BME280;9959;49.798;9.928;2023-02-21T04:49:22;100018.88;;;4.60;98.45
19624;BME280;9959;49.798;9.928;2023-02-21T04:51:53;100021.72;;;4.67;98.44
19624;BME280;9959;49.798;9.928;2023-02-21T04:54:20;100019.72;;;4.69;98.06
19624;BME280;9959;49.798;9.928;2023-02-21T04:56:46;100025.31;;;4.41;100.00
19624;BME280;9959;49.798;9.928;2023-02-21T04:59:13;100028.00;;;4.33;100.00
19624;BME280;9959;49.798;9.928;2023-02-21T05:01:40;100026.31;;;4.40;100.00
19624;BME280;9959;49.798;9.928;2023-02-21T05:04:07;100018.69;;;4.54;100.00
19624;BME280;9959;49.798;9.928;2023-02-21T05:06:34;100015.03;;;4.55;99.87
19624;BME280;9959;49.798;9.928;2023-02-21T05:09:04;100014.06;;;4.72;98.42
19624;BME280;9959;49.798;9.928;2023-02-21T05:11:34;100013.06;;;4.73;98.10
19624;BME280;9959;49.798;9.928;2023-02-21T05:14:04;100005.38;;;4.78;98.02
19624;BME280;9959;49.798;9.928;2023-02-21T05:16:30;99998.72;;;4.90;97.92
19624;BME280;9959;49.798;9.928;2023-02-21T05:19:07;99999.72;;;4.89;97.42
19624;BME280;9959;49.798;9.928;2023-02-21T05:21:35;99997.72;;;4.75;97.25
19624;BME280;9959;49.798;9.928;2023-02-21T05:24:05;99989.22;;;4.63;97.86
19624;BME280;9959;49.798;9.928;2023-02-21T05:26:35;99988.88;;;4.58;97.91
19624;BME280;9959;49.798;9.928;2023-02-21T05:29:03;99987.03;;;4.59;97.94
19624;BME280;9959;49.798;9.928;2023-02-21T05:31:30;99982.88;;;4.64;97.40
19624;BME280;9959;49.798;9.928;2023-02-21T05:33:57;99978.69;;;4.70;97.09
19624;BME280;9959;49.798;9.928;2023-02-21T05:36:24;99985.03;;;4.69;97.15
19624;BME280;9959;49.798;9.928;2023-02-21T05:38:53;99990.34;;;4.69;97.06
19624;BME280;9959;49.798;9.928;2023-02-21T05:41:21;99981.03;;;4.73;96.85
19624;BME280;9959;49.798;9.928;2023-02-21T05:43:49;99990.34;;;4.69;97.03
19624;BME280;9959;49.798;9.928;2023-02-21T05:48:52;99994.06;;;4.84;96.29
19624;BME280;9959;49.798;9.928;2023-02-21T05:51:19;99987.38;;;4.80;96.05
19624;BME280;9959;49.798;9.928;2023-02-21T05:53:46;99982.72;;;4.82;95.90
19624;BME280;9959;49.798;9.928;2023-02-21T05:56:13;99985.53;;;4.72;96.02
19624;BME280;9959;49.798;9.928;2023-02-21T05:58:40;99982.38;;;4.77;95.89
19624;BME280;9959;49.798;9.928;2023-02-21T06:01:13;99976.34;;;4.75;96.32
19624;BME280;9959;49.798;9.928;2023-02-21T06:03:40;99976.00;;;4.70;96.37
19624;BME280;9959;49.798;9.928;2023-02-21T06:06:08;99983.19;;;4.61;96.81
19624;BME280;9959;49.798;9.928;2023-02-21T06:08:45;99976.66;;;4.48;97.40
19624;BME280;9959;49.798;9.928;2023-02-21T06:11:13;99976.81;;;4.46;97.73
19624;BME280;9959;49.798;9.928;2023-02-21T06:13:41;99977.69;;;4.55;97.60
19624;BME280;9959;49.798;9.928;2023-02-21T06:16:08;99973.50;;;4.36;98.77
19624;BME280;9959;49.798;9.928;2023-02-21T06:18:35;99977.97;;;4.27;99.42
19624;BME280;9959;49.798;9.928;2023-02-21T06:21:02;99978.00;;;4.35;99.54
19624;BME280;9959;49.798;9.928;2023-02-21T06:23:30;99977.28;;;4.25;99.06
19624;BME280;9959;49.798;9.928;2023-02-21T06:25:57;99977.31;;;4.41;99.25
19624;BME280;9959;49.798;9.928;2023-02-21T06:28:29;99975.50;;;4.34;98.77
19624;BME280;9959;49.798;9.928;2023-02-21T06:30:56;99982.25;;;4.12;100.00
19624;BME280;9959;49.798;9.928;2023-02-21T06:33:25;99983.63;;;4.24;100.00
19624;BME280;9959;49.798;9.928;2023-02-21T06:35:52;99977.66;;;4.47;99.55
19624;BME280;9959;49.798;9.928;2023-02-21T06:38:19;99976.66;;;4.48;99.05
19624;BME280;9959;49.798;9.928;2023-02-21T06:40:46;99978.44;;;4.23;100.00
19624;BME280;9959;49.798;9.928;2023-02-21T06:43:13;99980.94;;;4.16;100.00
19624;BME280;9959;49.798;9.928;2023-02-21T06:45:41;99981.44;;;4.20;100.00
19624;BME280;9959;49.798;9.928;2023-02-21T06:48:07;99980.44;;;4.21;100.00
19624;BME280;9959;49.798;9.928;2023-02-21T06:50:34;99981.81;;;4.33;100.00
19624;BME280;9959;49.798;9.928;2023-02-21T06:53:01;99985.66;;;4.38;100.00
19624;BME280;9959;49.798;9.928;2023-02-21T06:55:28;99986.31;;;4.40;99.88
19624;BME280;9959;49.798;9.928;2023-02-21T06:57:55;100000.00;;;4.37;99.66
19624;BME280;9959;49.798;9.928;2023-02-21T07:00:22;99998.34;;;4.45;99.45
19624;BME280;9959;49.798;9.928;2023-02-21T07:02:49;100009.31;;;4.41;99.54
19624;BME280;9959;49.798;9.928;2023-02-21T07:07:45;100008.34;;;4.34;99.99
19624;BME280;9959;49.798;9.928;2023-02-21T07:10:12;100008.34;;;4.51;99.03
19624;BME280;9959;49.798;9.928;2023-02-21T07:12:39;100009.03;;;4.53;98.99
19624;BME280;9959;49.798;9.928;2023-02-21T07:15:06;100009.69;;;4.55;98.43
19624;BME280;9959;49.798;9.928;2023-02-21T07:17:33;100013.19;;;4.55;98.57
19624;BME280;9959;49.798;9.928;2023-02-21T07:20:01;100015.38;;;4.60;98.15
19624;BME280;9959;49.798;9.928;2023-02-21T07:22:27;100020.53;;;4.69;97.79
19624;BME280;9959;49.798;9.928;2023-02-21T07:24:55;100017.75;;;4.87;96.39
19624;BME280;9959;49.798;9.928;2023-02-21T07:27:22;100024.75;;;4.88;96.19
19624;BME280;9959;49.798;9.928;2023-02-21T07:29:49;100018.22;;;4.99;95.79
19624;BME280;9959;49.798;9.928;2023-02-21T07:32:16;100021.41;;;4.94;95.58
19624;BME280;9959;49.798;9.928;2023-02-21T07:34:43;100019.41;;;5.04;95.54
19624;BME280;9959;49.798;9.928;2023-02-21T07:37:10;100012.22;;;5.21;94.47
19624;BME280;9959;49.798;9.928;2023-02-21T07:39:37;100013.72;;;5.24;94.34
19624;BME280;9959;49.798;9.928;2023-02-21T07:42:04;100018.38;;;5.38;93.54
19624;BME280;9959;49.798;9.928;2023-02-21T07:44:31;100020.88;;;5.23;93.70
19624;BME280;9959;49.798;9.928;2023-02-21T07:46:57;100019.22;;;5.30;93.36
19624;BME280;9959;49.798;9.928;2023-02-21T07:49:25;100022.06;;;5.37;92.92
19624;BME280;9959;49.798;9.928;2023-02-21T07:51:51;100016.84;;;5.60;92.53
19624;BME280;9959;49.798;9.928;2023-02-21T07:54:18;100027.47;;;5.76;91.39
19624;BME280;9959;49.798;9.928;2023-02-21T07:56:47;100024.28;;;5.81;90.53
19624;BME280;9959;49.798;9.928;2023-02-21T07:59:14;100031.25;;;6.06;89.37
19624;BME280;9959;49.798;9.928;2023-02-21T08:01:41;100031.41;;;6.13;88.48
19624;BME280;9959;49.798;9.928;2023-02-21T08:04:08;100035.63;;;6.38;87.33
19624;BME280;9959;49.798;9.928;2023-02-21T08:06:35;100033.97;;;6.60;86.72
19624;BME280;9959;49.798;9.928;2023-02-21T08:09:03;100037.75;;;6.73;85.21
19624;BME280;9959;49.798;9.928;2023-02-21T08:11:32;100038.78;;;6.95;84.69
19624;BME280;9959;49.798;9.928;2023-02-21T08:14:05;100041.91;;;7.22;83.82
19624;BME280;9959;49.798;9.928;2023-02-21T08:16:32;100045.97;;;7.18;83.41
19624;BME280;9959;49.798;9.928;2023-02-21T08:19:00;100044.47;;;7.38;82.91
19624;BME280;9959;49.798;9.928;2023-02-21T08:21:27;100049.56;;;7.47;82.26
19624;BME280;9959;49.798;9.928;2023-02-21T08:23:54;100057.03;;;7.37;82.39
19624;BME280;9959;49.798;9.928;2023-02-21T08:26:21;100053.91;;;7.48;82.15
19624;BME280;9959;49.798;9.928;2023-02-21T08:28:48;100059.38;;;7.55;81.99
19624;BME280;9959;49.798;9.928;2023-02-21T08:31:15;100049.41;;;7.78;80.31
19624;BME280;9959;49.798;9.928;2023-02-21T08:33:43;100060.06;;;7.87;79.51
19624;BME280;9959;49.798;9.928;2023-02-21T08:36:14;100051.97;;;8.31;78.91
19624;BME280;9959;49.798;9.928;2023-02-21T08:38:41;100052.06;;;8.23;78.70
19624;BME280;9959;49.798;9.928;2023-02-21T08:41:08;100051.00;;;7.88;79.39
19624;BME280;9959;49.798;9.928;2023-02-21T08:43:36;100049.31;;;8.01;79.28
19624;BME280;9959;49.798;9.928;2023-02-21T08:46:03;100048.31;;;8.46;78.02
19624;BME280;9959;49.798;9.928;2023-02-21T08:48:30;100058.81;;;8.63;76.72
19624;BME280;9959;49.798;9.928;2023-02-21T08:50:59;100052.69;;;8.69;76.50
19624;BME280;9959;49.798;9.928;2023-02-21T08:53:26;100053.91;;;8.52;76.84
19624;BME280;9959;49.798;9.928;2023-02-21T08:55:53;100058.06;;;8.69;77.01
19624;BME280;9959;49.798;9.928;2023-02-21T08:58:20;100049.94;;;8.83;75.60
19624;BME280;9959;49.798;9.928;2023-02-21T09:00:47;100049.09;;;8.83;75.36
19624;BME280;9959;49.798;9.928;2023-02-21T09:03:14;100059.28;;;8.88;74.71
19624;BME280;9959;49.798;9.928;2023-02-21T09:05:40;100050.31;;;9.44;72.90
19624;BME280;9959;49.798;9.928;2023-02-21T09:08:07;100053.78;;;9.66;71.36
19624;BME280;9959;49.798;9.928;2023-02-21T09:10:35;100054.00;;;9.99;70.49
19624;BME280;9959;49.798;9.928;2023-02-21T09:13:03;100049.69;;;9.70;70.20
19624;BME280;9959;49.798;9.928;2023-02-21T09:15:30;100048.53;;;9.58;70.88
19624;BME280;9959;49.798;9.928;2023-02-21T09:17:57;100050.94;;;9.46;71.68
19624;BME280;9959;49.798;9.928;2023-02-21T09:20:25;100042.28;;;9.79;70.30
19624;BME280;9959;49.798;9.928;2023-02-21T09:22:51;100048.19;;;10.30;68.38
19624;BME280;9959;49.798;9.928;2023-02-21T09:25:22;100044.84;;;10.76;66.25
19624;BME280;9959;49.798;9.928;2023-02-21T09:27:56;100038.16;;;10.17;69.23
19624;BME280;9959;49.798;9.928;2023-02-21T09:30:27;100038.47;;;10.29;68.83
19624;BME280;9959;49.798;9.928;2023-02-21T09:32:57;100036.75;;;10.76;66.89
19624;BME280;9959;49.798;9.928;2023-02-21T09:35:24;100032.22;;;10.83;66.27
19624;BME280;9959;49.798;9.928;2023-02-21T09:37:51;100043.81;;;10.77;66.21
19624;BME280;9959;49.798;9.928;2023-02-21T09:40:24;100040.25;;;10.70;67.32
19624;BME280;9959;49.798;9.928;2023-02-21T09:42:53;100043.34;;;10.60;68.05
19624;BME280;9959;49.798;9.928;2023-02-21T09:45:21;100037.97;;;10.73;67.85
19624;BME280;9959;49.798;9.928;2023-02-21T09:47:53;100033.06;;;10.90;67.48
19624;BME280;9959;49.798;9.928;2023-02-21T09:50:24;100030.41;;;11.43;65.01
19624;BME280;9959;49.798;9.928;2023-02-21T09:52:56;100024.13;;;10.83;66.77
19624;BME280;9959;49.798;9.928;2023-02-21T09:55:35;100017.94;;;11.29;65.93
19624;BME280;9959;49.798;9.928;2023-02-21T09:58:17;100016.09;;;11.36;65.69
19624;BME280;9959;49.798;9.928;2023-02-21T10:00:45;100019.78;;;11.88;64.00
19624;BME280;9959;49.798;9.928;2023-02-21T10:10:48;100026.22;;;12.58;61.64
19624;BME280;9959;49.798;9.928;2023-02-21T10:15:57;100008.38;;;13.13;59.59
19624;BME280;9959;49.798;9.928;2023-02-21T10:19:10;100014.28;;;13.35;58.73
19624;BME280;9959;49.798;9.928;2023-02-21T10:21:51;100011.41;;;12.98;60.13
19624;BME280;9959;49.798;9.928;2023-02-21T10:27:14;100012.56;;;13.65;58.99
19624;BME280;9959;49.798;9.928;2023-02-21T10:29:55;100011.78;;;13.58;58.03
19624;BME280;9959;49.798;9.928;2023-02-21T10:32:26;100010.28;;;13.62;58.58
19624;BME280;9959;49.798;9.928;2023-02-21T10:34:54;100013.00;;;13.06;60.04
19624;BME280;9959;49.798;9.928;2023-02-21T10:37:46;100016.72;;;13.11;60.74
19624;BME280;9959;49.798;9.928;2023-02-21T10:42:48;100008.53;;;13.49;59.62
19624;BME280;9959;49.798;9.928;2023-02-21T10:47:57;99998.88;;;14.33;56.71
19624;BME280;9959;49.798;9.928;2023-02-21T10:50:48;99993.91;;;13.75;58.65
19624;BME280;9959;49.798;9.928;2023-02-21T10:56:04;99996.91;;;14.59;58.46
19624;BME280;9959;49.798;9.928;2023-02-21T10:58:34;99997.72;;;14.89;58.75
19624;BME280;9959;49.798;9.928;2023-02-21T11:03:49;99997.53;;;14.06;61.74
19624;BME280;9959;49.798;9.928;2023-02-21T11:08:45;99987.31;;;13.46;64.82
19624;BME280;9959;49.798;9.928;2023-02-21T11:11:12;99987.31;;;13.21;65.87
19624;BME280;9959;49.798;9.928;2023-02-21T11:13:39;99992.41;;;13.36;66.02
19624;BME280;9959;49.798;9.928;2023-02-21T11:16:10;99980.00;;;13.29;66.45
19624;BME280;9959;49.798;9.928;2023-02-21T11:18:37;99982.09;;;13.70;64.96
19624;BME280;9959;49.798;9.928;2023-02-21T11:21:15;99978.03;;;13.97;63.94
19624;BME280;9959;49.798;9.928;2023-02-21T11:23:55;99980.38;;;14.12;63.56
19624;BME280;9959;49.798;9.928;2023-02-21T11:26:29;99975.94;;;13.63;66.31
19624;BME280;9959;49.798;9.928;2023-02-21T11:29:09;99963.09;;;13.95;65.17
19624;BME280;9959;49.798;9.928;2023-02-21T11:31:40;99964.88;;;13.82;65.80
19624;BME280;9959;49.798;9.928;2023-02-21T11:34:09;99964.88;;;14.01;64.88
19624;BME280;9959;49.798;9.928;2023-02-21T11:36:40;99963.38;;;13.86;65.37
19624;BME280;9959;49.798;9.928;2023-02-21T11:39:16;99958.69;;;13.75;65.92
19624;BME280;9959;49.798;9.928;2023-02-21T11:41:48;99951.31;;;14.01;65.03
19624;BME280;9959;49.798;9.928;2023-02-21T11:46:46;99948.16;;;16.22;57.26
19624;BME280;9959;49.798;9.928;2023-02-21T11:54:10;99946.91;;;14.96;61.08
19624;BME280;9959;49.798;9.928;2023-02-21T11:57:01;99937.34;;;14.52;63.00
19624;BME280;9959;49.798;9.928;2023-02-21T12:07:41;99935.56;;;17.95;52.08
19624;BME280;9959;49.798;9.928;2023-02-21T12:16:10;99927.47;;;15.11;60.64
19624;BME280;9959;49.798;9.928;2023-02-21T12:40:48;99893.38;;;15.15;60.78
19624;BME280;9959;49.798;9.928;2023-02-21T12:44:12;99891.50;;;15.27;59.87
19624;BME280;9959;49.798;9.928;2023-02-21T12:54:49;99869.69;;;19.58;47.20
19624;BME280;9959;49.798;9.928;2023-02-21T12:57:23;99863.44;;;24.24;36.89
19624;BME280;9959;49.798;9.928;2023-02-21T13:02:54;99856.88;;;21.43;41.77
19624;BME280;9959;49.798;9.928;2023-02-21T13:05:33;99851.88;;;20.13;43.67
19624;BME280;9959;49.798;9.928;2023-02-21T13:11:01;99847.56;;;15.94;55.26
19624;BME280;9959;49.798;9.928;2023-02-21T13:13:31;99838.44;;;17.45;51.99
19624;BME280;9959;49.798;9.928;2023-02-21T13:16:04;99829.19;;;20.33;45.66
19624;BME280;9959;49.798;9.928;2023-02-21T13:18:56;99817.50;;;20.63;44.18
19624;BME280;9959;49.798;9.928;2023-02-21T13:21:53;99819.94;;;20.84;43.06
19624;BME280;9959;49.798;9.928;2023-02-21T13:24:43;99805.69;;;22.42;40.32
19624;BME280;9959;49.798;9.928;2023-02-21T13:29:45;99807.50;;;18.27;48.34
19624;BME280;9959;49.798;9.928;2023-02-21T13:34:59;99793.91;;;17.78;50.84
19624;BME280;9959;49.798;9.928;2023-02-21T13:37:29;99801.75;;;16.76;52.93
19624;BME280;9959;49.798;9.928;2023-02-21T13:40:04;99794.03;;;15.77;56.66
19624;BME280;9959;49.798;9.928;2023-02-21T13:42:36;99784.06;;;16.28;55.62
19624;BME280;9959;49.798;9.928;2023-02-21T13:53:18;99776.63;;;17.07;53.24
19624;BME280;9959;49.798;9.928;2023-02-21T14:03:44;99753.66;;;19.91;45.15
19624;BME280;9959;49.798;9.928;2023-02-21T14:08:46;99746.84;;;19.31;45.57
19624;BME280;9959;49.798;9.928;2023-02-21T14:13:48;99734.94;;;17.45;50.97
19624;BME280;9959;49.798;9.928;2023-02-21T14:16:29;99738.94;;;16.27;54.81
19624;BME280;9959;49.798;9.928;2023-02-21T14:19:16;99727.38;;;19.90;46.01
19624;BME280;9959;49.798;9.928;2023-02-21T14:24:27;99721.13;;;20.76;43.09
19624;BME280;9959;49.798;9.928;2023-02-21T14:26:56;99724.38;;;20.83;42.39
19624;BME280;9959;49.798;9.928;2023-02-21T14:29:31;99718.25;;;21.16;41.50
19624;BME280;9959;49.798;9.928;2023-02-21T14:39:42;99714.31;;;22.36;39.24
19624;BME280;9959;49.798;9.928;2023-02-21T15:01:56;99692.09;;;22.33;38.84
19624;BME280;9959;49.798;9.928;2023-02-21T15:07:03;99684.00;;;22.99;36.49
19624;BME280;9959;49.798;9.928;2023-02-21T15:09:34;99680.97;;;19.12;44.46
19624;BME280;9959;49.798;9.928;2023-02-21T15:12:05;99683.91;;;16.37;52.24
19624;BME280;9959;49.798;9.928;2023-02-21T15:14:38;99676.00;;;17.12;50.51
19624;BME280;9959;49.798;9.928;2023-02-21T15:17:12;99671.06;;;20.09;43.88
19624;BME280;9959;49.798;9.928;2023-02-21T15:19:42;99673.50;;;20.72;42.06
19624;BME280;9959;49.798;9.928;2023-02-21T15:25:15;99675.63;;;21.93;39.19
19624;BME280;9959;49.798;9.928;2023-02-21T15:32:53;99666.16;;;19.96;42.26
19624;BME280;9959;49.798;9.928;2023-02-21T15:35:28;99662.47;;;20.92;40.37
19624;BME280;9959;49.798;9.928;2023-02-21T15:37:58;99660.56;;;21.52;39.83
19624;BME280;9959;49.798;9.928;2023-02-21T15:40:26;99666.38;;;21.84;38.97
19624;BME280;9959;49.798;9.928;2023-02-21T15:42:56;99663.94;;;22.75;37.59
19624;BME280;9959;49.798;9.928;2023-02-21T15:45:27;99654.44;;;21.65;39.71
19624;BME280;9959;49.798;9.928;2023-02-21T15:47:57;99665.09;;;21.27;40.46
19624;BME280;9959;49.798;9.928;2023-02-21T15:50:31;99666.22;;;21.11;40.08
19624;BME280;9959;49.798;9.928;2023-02-21T15:55:41;99667.88;;;19.24;44.26
19624;BME280;9959;49.798;9.928;2023-02-21T16:00:47;99662.94;;;19.16;45.06
19624;BME280;9959;49.798;9.928;2023-02-21T16:05:51;99659.09;;;19.17;44.61
19624;BME280;9959;49.798;9.928;2023-02-21T16:08:27;99657.66;;;20.23;42.29
19624;BME280;9959;49.798;9.928;2023-02-21T16:11:01;99656.56;;;19.78;43.55
19624;BME280;9959;49.798;9.928;2023-02-21T16:13:58;99666.44;;;18.17;46.58
19624;BME280;9959;49.798;9.928;2023-02-21T16:16:32;99669.16;;;16.88;49.30
19624;BME280;9959;49.798;9.928;2023-02-21T16:18:59;99659.59;;;15.51;53.79
19624;BME280;9959;49.798;9.928;2023-02-21T16:21:28;99658.78;;;15.51;54.58
19624;BME280;9959;49.798;9.928;2023-02-21T16:23:55;99662.22;;;14.54;59.43
19624;BME280;9959;49.798;9.928;2023-02-21T16:26:29;99663.88;;;14.20;61.77
19624;BME280;9959;49.798;9.928;2023-02-21T16:28:58;99665.84;;;14.02;63.43
19624;BME280;9959;49.798;9.928;2023-02-21T16:31:36;99667.03;;;14.06;63.56
19624;BME280;9959;49.798;9.928;2023-02-21T16:34:05;99664.44;;;13.87;64.19
19624;BME280;9959;49.798;9.928;2023-02-21T16:36:33;99661.06;;;13.62;65.39
19624;BME280;9959;49.798;9.928;2023-02-21T16:39:00;99662.91;;;13.50;66.90
19624;BME280;9959;49.798;9.928;2023-02-21T16:41:27;99661.22;;;13.37;67.57
19624;BME280;9959;49.798;9.928;2023-02-21T16:43:54;99662.06;;;13.19;68.63
19624;BME280;9959;49.798;9.928;2023-02-21T16:46:25;99665.66;;;13.13;69.32
19624;BME280;9959;49.798;9.928;2023-02-21T16:48:56;99655.78;;;12.89;70.85
19624;BME280;9959;49.798;9.928;2023-02-21T16:51:24;99659.75;;;12.68;71.99
19624;BME280;9959;49.798;9.928;2023-02-21T16:53:51;99668.25;;;12.53;73.21
19624;BME280;9959;49.798;9.928;2023-02-21T16:58:47;99663.13;;;12.27;74.99
19624;BME280;9959;49.798;9.928;2023-02-21T17:03:46;99668.00;;;12.12;77.17
19624;BME280;9959;49.798;9.928;2023-02-21T17:06:16;99666.06;;;12.01;77.87
19624;BME280;9959;49.798;9.928;2023-02-21T17:08:46;99673.81;;;11.91;78.60
19624;BME280;9959;49.798;9.928;2023-02-21T17:11:13;99670.75;;;11.80;78.82